Time;durP1;ratioP1;P1;durP2;ratioP2;P2;SDS_P1;SDS_P2;PMS_P1;PMS_P2;Temp;Humidity;BMP_temperature;BMP_pressure;BME280_temperature;BME280_humidity;BME280_pressure;Samples;Min_cycle;Max_cycle;Signal;HPM_P1;HPM_P2
2023/10/26 00:03:53;;;;;;;31.10;23.40;;;;;;;7.62;100.00;97719.81;430598;1276;140191;-63
2023/10/26 00:13:59;;;;;;;35.90;26.60;;;;;;;7.38;100.00;97716.34;429808;1276;139826;-63
2023/10/26 00:24:06;;;;;;;26.20;22.90;;;;;;;7.18;100.00;97713.90;429984;1274;139426;-64
2023/10/26 00:34:12;;;;;;;35.50;27.90;;;;;;;6.99;100.00;97701.29;430306;1273;140138;-63
2023/10/26 00:44:18;;;;;;;31.60;24.70;;;;;;;6.96;100.00;97696.65;430467;1272;139535;-64
2023/10/26 00:54:25;;;;;;;25.90;22.40;;;;;;;7.01;100.00;97688.64;429866;1274;139381;-63
2023/10/26 01:04:31;;;;;;;25.10;21.00;;;;;;;7.17;100.00;97683.87;430019;1276;140607;-63
2023/10/26 01:14:37;;;;;;;32.00;25.90;;;;;;;7.32;100.00;97682.30;430135;1274;141306;-63
2023/10/26 01:24:43;;;;;;;28.80;24.30;;;;;;;7.35;100.00;97658.96;429865;1274;139306;-64
2023/10/26 01:34:50;;;;;;;26.00;22.60;;;;;;;7.20;100.00;97657.88;429672;1270;139332;-64
2023/10/26 01:44:55;;;;;;;24.50;21.60;;;;;;;7.18;100.00;97652.26;429824;1276;141425;-64
2023/10/26 01:55:01;;;;;;;23.70;20.70;;;;;;;7.25;100.00;97640.94;429899;1274;139081;-64
2023/10/26 02:05:09;;;;;;;19.80;17.80;;;;;;;7.27;100.00;97633.97;430208;1276;139444;-64
2023/10/26 02:15:15;;;;;;;20.60;17.50;;;;;;;7.26;100.00;97626.73;430775;1276;139615;-63
2023/10/26 02:25:21;;;;;;;21.80;17.40;;;;;;;7.27;100.00;97613.27;429863;1270;140382;-63
2023/10/26 02:35:26;;;;;;;23.70;19.70;;;;;;;7.26;100.00;97601.54;430405;1276;139268;-63
2023/10/26 02:45:32;;;;;;;23.20;16.10;;;;;;;7.27;100.00;97584.70;430429;1274;139781;-64
2023/10/26 02:55:38;;;;;;;21.90;16.90;;;;;;;7.32;100.00;97567.11;429477;1276;140226;-64
2023/10/26 03:05:44;;;;;;;24.70;20.20;;;;;;;7.33;100.00;97554.88;429737;1275;139534;-64
2023/10/26 03:15:50;;;;;;;24.60;20.90;;;;;;;7.32;100.00;97543.26;429990;1274;139348;-64
2023/10/26 03:25:56;;;;;;;36.30;24.40;;;;;;;7.35;100.00;97549.60;429780;1276;141835;-64
2023/10/26 03:36:02;;;;;;;34.40;23.10;;;;;;;7.44;100.00;97545.60;429558;1276;139425;-63
2023/10/26 03:46:08;;;;;;;31.20;25.30;;;;;;;7.47;100.00;97536.95;430327;1273;140509;-64
2023/10/26 03:56:14;;;;;;;29.60;22.70;;;;;;;7.44;100.00;97524.70;429591;1274;139595;-64
2023/10/26 04:06:20;;;;;;;25.00;20.70;;;;;;;7.38;100.00;97518.70;429888;1274;139350;-64
2023/10/26 04:16:26;;;;;;;26.50;21.00;;;;;;;7.36;100.00;97508.48;429488;1273;140340;-64
2023/10/26 04:26:32;;;;;;;25.30;21.90;;;;;;;7.34;100.00;97492.92;429693;1276;141400;-63
2023/10/26 04:36:38;;;;;;;23.50;19.10;;;;;;;7.32;100.00;97486.52;430381;1275;139358;-63
2023/10/26 04:46:44;;;;;;;23.80;20.30;;;;;;;7.31;100.00;97475.10;429590;1275;139346;-64
2023/10/26 04:56:50;;;;;;;24.00;19.80;;;;;;;7.32;100.00;97458.01;430857;1274;140417;-64
2023/10/26 05:06:56;;;;;;;23.60;19.50;;;;;;;7.33;100.00;97454.05;429406;1273;139515;-63
2023/10/26 05:17:02;;;;;;;23.90;21.20;;;;;;;7.37;100.00;97438.92;429861;1272;140801;-63
2023/10/26 05:27:08;;;;;;;24.50;21.20;;;;;;;7.43;100.00;97417.85;429815;1275;139343;-64
2023/10/26 05:37:14;;;;;;;28.70;20.90;;;;;;;7.51;100.00;97405.00;429811;1273;139665;-65
2023/10/26 05:47:20;;;;;;;25.70;21.80;;;;;;;7.60;100.00;97412.94;430062;1275;139304;-70
2023/10/26 05:57:27;;;;;;;24.10;18.70;;;;;;;7.69;100.00;97422.94;433685;1273;139066;-80
2023/10/26 06:07:33;;;;;;;27.50;22.60;;;;;;;7.76;100.00;97430.19;433648;1273;139384;-68
2023/10/26 06:17:39;;;;;;;25.00;19.50;;;;;;;7.82;100.00;97431.94;433639;1273;139643;-72
2023/10/26 06:27:47;;;;;;;26.30;19.60;;;;;;;7.92;100.00;97425.19;430059;1272;141595;-72
2023/10/26 06:37:53;;;;;;;22.80;19.70;;;;;;;8.02;100.00;97410.92;433549;1274;139153;-70
2023/10/26 06:47:59;;;;;;;23.10;20.20;;;;;;;8.12;100.00;97389.98;433763;1273;139153;-72
2023/10/26 06:58:05;;;;;;;23.80;21.20;;;;;;;8.35;100.00;97381.98;429900;1275;171682;-66
2023/10/26 07:08:11;;;;;;;21.10;18.60;;;;;;;8.77;100.00;97374.90;432344;1276;140824;-70
2023/10/26 07:18:18;;;;;;;21.70;18.10;;;;;;;8.94;100.00;97374.96;433651;1273;139739;-75
2023/10/26 07:28:24;;;;;;;22.20;19.90;;;;;;;8.99;100.00;97376.97;433800;1270;139137;-77
2023/10/26 07:38:30;;;;;;;20.80;18.60;;;;;;;9.14;100.00;97367.92;433698;1269;139343;-76
2023/10/26 07:48:40;;;;;;;23.00;19.90;;;;;;;9.33;100.00;97364.70;433669;1272;139497;-71
2023/10/26 07:58:46;;;;;;;21.00;18.80;;;;;;;10.08;100.00;97354.75;433341;1273;139419;-79
2023/10/26 08:08:52;;;;;;;23.40;18.20;;;;;;;10.53;100.00;97354.64;431007;1272;139997;-72
2023/10/26 08:18:58;;;;;;;20.60;18.60;;;;;;;10.81;100.00;97356.96;433951;1272;139698;-72
2023/10/26 08:29:04;;;;;;;20.30;18.20;;;;;;;11.98;100.00;97349.89;433826;1275;140544;-72
2023/10/26 08:39:26;;;;;;;19.90;17.90;;;;;;;12.01;100.00;97353.89;432273;1276;139790;-65
2023/10/26 08:49:33;;;;;;;16.70;15.00;;;;;;;11.60;100.00;97349.68;431840;1275;140334;-73
2023/10/26 08:59:39;;;;;;;16.90;15.10;;;;;;;11.28;100.00;97344.56;431366;1273;139871;-72
2023/10/26 09:09:48;;;;;;;16.70;14.80;;;;;;;11.10;100.00;97344.71;433675;1273;139879;-76
2023/10/26 09:19:54;;;;;;;15.70;13.00;;;;;;;11.05;100.00;97338.61;433568;1273;140181;-64
2023/10/26 09:30:00;;;;;;;17.70;14.90;;;;;;;11.05;100.00;97333.98;430645;1272;140044;-65
2023/10/26 09:40:08;;;;;;;16.80;13.40;;;;;;;11.16;100.00;97323.64;429722;1273;140269;-74
2023/10/26 09:50:22;;;;;;;15.10;13.10;;;;;;;11.40;100.00;97319.11;430724;1273;140230;-79
2023/10/26 10:00:33;;;;;;;23.10;13.90;;;;;;;11.81;100.00;97308.00;433965;1271;141454;-72
2023/10/26 10:10:59;;;;;;;9.80;8.10;;;;;;;12.32;100.00;97304.27;434742;1271;140690;-71
2023/10/26 10:21:36;;;;;;;10.80;7.50;;;;;;;12.39;100.00;97291.39;432632;1273;139254;-73
2023/10/26 10:31:42;;;;;;;9.50;7.70;;;;;;;12.39;100.00;97280.73;433471;1273;140018;-66
2023/10/26 10:41:48;;;;;;;11.30;8.50;;;;;;;12.36;100.00;97276.33;430387;1273;139701;-78
2023/10/26 10:51:54;;;;;;;9.90;8.80;;;;;;;12.14;100.00;97278.81;433466;1275;140487;-67
2023/10/26 11:02:10;;;;;;;4.50;4.10;;;;;;;11.90;100.00;97280.64;429789;1273;141209;-67
2023/10/26 11:12:16;;;;;;;3.50;3.20;;;;;;;11.55;100.00;97276.62;429905;1271;139831;-67
2023/10/26 11:22:23;;;;;;;3.60;2.60;;;;;;;11.26;100.00;97282.33;429577;1274;139979;-66
2023/10/26 11:32:31;;;;;;;7.80;3.70;;;;;;;11.08;100.00;97289.48;429731;1273;139512;-67
2023/10/26 11:42:51;;;;;;;3.70;3.10;;;;;;;11.00;100.00;97294.51;429441;1275;139585;-66
2023/10/26 11:52:59;;;;;;;5.80;4.70;;;;;;;10.91;100.00;97300.30;430098;1272;139851;-66
2023/10/26 12:03:05;;;;;;;4.50;4.20;;;;;;;10.95;100.00;97296.53;429983;1275;140570;-66
2023/10/26 12:13:11;;;;;;;4.60;4.10;;;;;;;11.01;100.00;97299.14;429893;1274;139472;-65
2023/10/26 12:23:17;;;;;;;4.70;4.30;;;;;;;11.10;100.00;97295.23;429788;1273;139684;-68
2023/10/26 12:33:22;;;;;;;4.30;3.60;;;;;;;11.46;100.00;97293.48;430457;1275;139750;-68
2023/10/26 12:43:28;;;;;;;3.40;3.20;;;;;;;11.62;100.00;97299.46;429801;1276;139994;-67
2023/10/26 12:53:35;;;;;;;3.00;2.50;;;;;;;11.66;100.00;97302.39;429770;1272;139488;-66
2023/10/26 13:03:42;;;;;;;3.60;2.90;;;;;;;11.58;100.00;97316.58;429799;1276;139492;-66
2023/10/26 13:13:48;;;;;;;1.90;1.80;;;;;;;11.41;100.00;97322.70;429999;1273;140944;-66
2023/10/26 13:23:54;;;;;;;1.80;1.70;;;;;;;11.26;100.00;97323.54;430208;1274;139898;-67
2023/10/26 13:34:00;;;;;;;3.10;1.60;;;;;;;11.23;100.00;97331.59;430574;1274;139648;-65
2023/10/26 13:44:06;;;;;;;2.90;2.50;;;;;;;11.20;100.00;97334.67;429080;1273;140353;-65
2023/10/26 13:54:12;;;;;;;2.80;2.00;;;;;;;11.15;100.00;97338.30;429702;1273;140299;-65
2023/10/26 14:04:18;;;;;;;3.10;2.70;;;;;;;11.13;100.00;97338.55;431068;1272;139558;-65
2023/10/26 14:14:24;;;;;;;3.40;2.50;;;;;;;11.12;100.00;97341.80;429660;1274;139774;-65
2023/10/26 14:24:30;;;;;;;4.60;4.00;;;;;;;11.06;100.00;97347.05;429869;1273;139492;-66
2023/10/26 14:34:37;;;;;;;4.00;2.70;;;;;;;10.98;100.00;97357.39;429659;1274;139700;-65
2023/10/26 14:44:43;;;;;;;5.10;3.40;;;;;;;10.88;100.00;97362.58;432091;1273;139752;-66
2023/10/26 14:54:49;;;;;;;2.20;2.00;;;;;;;10.82;100.00;97368.06;429900;1274;139761;-66
2023/10/26 15:04:55;;;;;;;3.90;2.40;;;;;;;10.71;100.00;97368.22;429819;1269;139890;-66
2023/10/26 15:15:01;;;;;;;1.70;1.60;;;;;;;10.59;100.00;97368.61;430285;1275;139869;-66
2023/10/26 15:25:07;;;;;;;1.80;1.70;;;;;;;10.45;100.00;97376.93;430167;1276;140231;-65
2023/10/26 15:35:13;;;;;;;2.20;1.90;;;;;;;10.34;100.00;97387.80;430106;1274;140410;-65
2023/10/26 15:45:20;;;;;;;5.10;4.70;;;;;;;10.23;100.00;97391.44;430099;1273;139739;-66
2023/10/26 15:55:27;;;;;;;12.00;10.80;;;;;;;10.17;100.00;97395.52;430510;1273;139721;-65
2023/10/26 16:05:34;;;;;;;13.70;11.50;;;;;;;10.13;100.00;97400.65;430231;1275;140093;-65
2023/10/26 16:15:41;;;;;;;;;;;;;;;10.13;100.00;97410.98;430962;1275;140864;-67
2023/10/26 16:26:04;;;;;;;12.70;9.90;;;;;;;10.11;100.00;97417.59;430785;1275;127177;-65
2023/10/26 16:36:10;;;;;;;14.10;10.90;;;;;;;10.06;100.00;97417.73;429964;1273;140040;-66
2023/10/26 16:46:17;;;;;;;8.00;6.70;;;;;;;10.02;100.00;97423.26;430514;1275;141216;-67
2023/10/26 16:56:26;;;;;;;14.70;8.50;;;;;;;9.98;100.00;97423.04;430348;1273;139371;-66
2023/10/26 17:06:33;;;;;;;11.10;7.20;;;;;;;9.96;100.00;97416.09;430725;1273;140576;-65
2023/10/26 17:16:38;;;;;;;49.40;26.00;;;;;;;9.93;100.00;97413.09;430037;1275;139318;-68
2023/10/26 17:27:09;;;;;;;18.20;10.30;;;;;;;9.89;100.00;97408.58;430276;1276;140259;-66
2023/10/26 17:37:14;;;;;;;35.80;17.60;;;;;;;9.84;100.00;97407.48;430211;1274;139765;-66
2023/10/26 17:47:21;;;;;;;15.10;11.30;;;;;;;9.80;100.00;97410.07;429831;1270;140125;-67
2023/10/26 17:57:27;;;;;;;18.90;13.60;;;;;;;9.76;100.00;97404.19;430334;1273;141626;-67
2023/10/26 18:07:33;;;;;;;10.90;8.40;;;;;;;9.72;100.00;97408.95;429858;1274;139946;-66
2023/10/26 18:17:39;;;;;;;11.30;9.40;;;;;;;9.70;100.00;97413.69;429961;1271;139472;-68
2023/10/26 18:27:45;;;;;;;9.40;7.80;;;;;;;9.71;100.00;97424.61;430320;1270;141369;-66
2023/10/26 18:37:54;;;;;;;9.90;9.10;;;;;;;9.70;100.00;97427.98;430209;1275;139598;-67
2023/10/26 18:47:59;;;;;;;8.90;6.90;;;;;;;9.73;100.00;97432.05;430429;1270;139289;-67
2023/10/26 18:58:10;;;;;;;7.40;6.80;;;;;;;9.74;100.00;97430.04;430483;1274;168601;-65
2023/10/26 19:08:18;;;;;;;7.60;6.70;;;;;;;9.72;100.00;97428.84;432255;1275;140245;-65
2023/10/26 19:18:24;;;;;;;8.10;7.40;;;;;;;9.66;100.00;97428.54;430672;1274;139887;-65
2023/10/26 19:28:30;;;;;;;9.60;8.70;;;;;;;9.53;100.00;97429.38;430372;1271;139436;-66
2023/10/26 19:38:36;;;;;;;9.70;8.80;;;;;;;9.37;100.00;97433.31;430907;1276;139838;-65
2023/10/26 19:48:43;;;;;;;10.00;8.60;;;;;;;9.33;100.00;97437.73;430439;1275;139885;-65
2023/10/26 19:58:49;;;;;;;11.50;10.40;;;;;;;9.30;100.00;97433.09;430391;1271;141792;-66
2023/10/26 20:08:56;;;;;;;11.30;10.10;;;;;;;9.29;100.00;97432.73;430794;1276;140682;-66
2023/10/26 20:19:02;;;;;;;10.30;9.30;;;;;;;9.28;100.00;97436.05;431282;1275;140198;-67
2023/10/26 20:29:11;;;;;;;10.60;9.50;;;;;;;9.28;100.00;97438.73;431220;1274;140566;-65
2023/10/26 20:39:17;;;;;;;8.80;8.00;;;;;;;9.28;100.00;97448.52;431306;1276;139499;-66
2023/10/26 20:49:23;;;;;;;10.30;9.30;;;;;;;9.27;100.00;97448.05;430260;1274;139998;-67
2023/10/26 20:59:29;;;;;;;11.40;9.60;;;;;;;9.23;100.00;97456.77;430399;1274;140005;-67
2023/10/26 21:09:35;;;;;;;11.00;9.70;;;;;;;9.13;100.00;97453.52;430580;1275;139864;-66
2023/10/26 21:19:41;;;;;;;12.70;10.20;;;;;;;9.00;100.00;97462.40;430005;1276;139761;-66
2023/10/26 21:29:47;;;;;;;10.60;9.30;;;;;;;8.91;100.00;97474.53;430244;1274;139882;-65
2023/10/26 21:39:53;;;;;;;10.60;9.60;;;;;;;8.82;100.00;97475.64;430183;1276;139736;-66
2023/10/26 21:49:59;;;;;;;12.40;9.10;;;;;;;8.74;100.00;97469.47;430289;1274;139524;-65
2023/10/26 22:00:08;;;;;;;11.00;9.60;;;;;;;8.68;100.00;97467.79;430477;1276;139290;-66
2023/10/26 22:10:14;;;;;;;12.00;10.40;;;;;;;8.65;100.00;97472.45;430346;1270;140533;-66
2023/10/26 22:20:21;;;;;;;11.70;10.30;;;;;;;8.63;100.00;97478.97;430302;1273;140342;-66
2023/10/26 22:30:27;;;;;;;12.00;10.00;;;;;;;8.59;100.00;97478.75;431628;1275;140625;-66
2023/10/26 22:40:33;;;;;;;8.90;8.10;;;;;;;8.56;100.00;97473.44;431680;1270;141248;-66
2023/10/26 22:50:39;;;;;;;12.10;10.40;;;;;;;8.54;100.00;97469.80;430111;1274;140864;-66
2023/10/26 23:00:45;;;;;;;9.40;8.50;;;;;;;8.51;100.00;97471.27;430201;1274;139779;-65
2023/10/26 23:10:51;;;;;;;9.80;8.80;;;;;;;8.48;100.00;97458.65;430074;1274;139756;-65
2023/10/26 23:20:57;;;;;;;9.70;8.70;;;;;;;8.39;100.00;97449.62;430170;1272;139533;-66
2023/10/26 23:31:07;;;;;;;9.80;8.80;;;;;;;8.26;100.00;97445.25;430121;1273;139411;-66
2023/10/26 23:41:14;;;;;;;10.00;9.00;;;;;;;8.12;100.00;97441.34;430815;1270;139117;-65
2023/10/26 23:51:21;;;;;;;9.70;8.80;;;;;;;8.01;100.00;97433.08;430477;1275;139166;-65
